sensor_id;sensor_type;location;lat;lon;timestamp;temperature;humidity
78793;SHT31;68134;51.984;5.652;2023-05-10T00:02:10;16.2;75.3
78793;SHT31;68134;51.984;5.652;2023-05-10T00:04:40;16.2;75.6
78793;SHT31;68134;51.984;5.652;2023-05-10T00:07:09;16.2;75.5
78793;SHT31;68134;51.984;5.652;2023-05-10T00:09:37;16.2;75.6
78793;SHT31;68134;51.984;5.652;2023-05-10T00:12:06;16.2;75.7
78793;SHT31;68134;51.984;5.652;2023-05-10T00:14:35;16.2;75.7
78793;SHT31;68134;51.984;5.652;2023-05-10T00:17:03;16.2;75.3
78793;SHT31;68134;51.984;5.652;2023-05-10T00:19:32;16.2;75.5
78793;SHT31;68134;51.984;5.652;2023-05-10T00:22:00;16.2;75.4
78793;SHT31;68134;51.984;5.652;2023-05-10T00:24:29;16.2;75.3
78793;SHT31;68134;51.984;5.652;2023-05-10T00:26:57;16.2;75.4
78793;SHT31;68134;51.984;5.652;2023-05-10T00:29:26;16.2;75.6
78793;SHT31;68134;51.984;5.652;2023-05-10T00:31:55;16.2;75.7
78793;SHT31;68134;51.984;5.652;2023-05-10T00:34:24;16.2;75.4
78793;SHT31;68134;51.984;5.652;2023-05-10T00:36:53;16.1;75.9
78793;SHT31;68134;51.984;5.652;2023-05-10T00:39:22;16.1;75.6
78793;SHT31;68134;51.984;5.652;2023-05-10T00:41:52;16.1;75.7
78793;SHT31;68134;51.984;5.652;2023-05-10T00:44:21;16.1;75.6
78793;SHT31;68134;51.984;5.652;2023-05-10T00:46:49;16.1;75.7
78793;SHT31;68134;51.984;5.652;2023-05-10T00:49:19;16.1;75.7
78793;SHT31;68134;51.984;5.652;2023-05-10T00:51:48;16.1;75.9
78793;SHT31;68134;51.984;5.652;2023-05-10T00:54:17;16.1;76.1
78793;SHT31;68134;51.984;5.652;2023-05-10T00:56:46;16.1;75.8
78793;SHT31;68134;51.984;5.652;2023-05-10T00:59:15;16.1;76.0
78793;SHT31;68134;51.984;5.652;2023-05-10T01:01:46;16.1;76.2
78793;SHT31;68134;51.984;5.652;2023-05-10T01:04:15;16.1;76.3
78793;SHT31;68134;51.984;5.652;2023-05-10T01:06:43;16.1;76.2
78793;SHT31;68134;51.984;5.652;2023-05-10T01:09:14;16.1;76.3
78793;SHT31;68134;51.984;5.652;2023-05-10T01:11:43;16.1;76.5
78793;SHT31;68134;51.984;5.652;2023-05-10T01:14:12;16.1;76.7
78793;SHT31;68134;51.984;5.652;2023-05-10T01:16:42;16.1;76.8
78793;SHT31;68134;51.984;5.652;2023-05-10T01:19:18;16.1;76.8
78793;SHT31;68134;51.984;5.652;2023-05-10T01:21:51;16.1;77.0
78793;SHT31;68134;51.984;5.652;2023-05-10T01:24:43;16.1;76.9
78793;SHT31;68134;51.984;5.652;2023-05-10T01:32:29;16.1;77.4
78793;SHT31;68134;51.984;5.652;2023-05-10T01:35:03;16.0;77.2
78793;SHT31;68134;51.984;5.652;2023-05-10T01:37:44;16.0;77.2
78793;SHT31;68134;51.984;5.652;2023-05-10T01:40:23;16.0;77.5
78793;SHT31;68134;51.984;5.652;2023-05-10T01:42:56;16.0;77.4
78793;SHT31;68134;51.984;5.652;2023-05-10T01:45:31;16.0;77.5
78793;SHT31;68134;51.984;5.652;2023-05-10T01:48:05;16.0;77.4
78793;SHT31;68134;51.984;5.652;2023-05-10T01:50:37;16.0;77.5
78793;SHT31;68134;51.984;5.652;2023-05-10T01:53:08;16.0;77.4
78793;SHT31;68134;51.984;5.652;2023-05-10T01:55:43;16.0;77.2
78793;SHT31;68134;51.984;5.652;2023-05-10T01:58:17;15.9;77.5
78793;SHT31;68134;51.984;5.652;2023-05-10T02:00:51;15.9;77.5
78793;SHT31;68134;51.984;5.652;2023-05-10T02:03:23;15.9;77.6
78793;SHT31;68134;51.984;5.652;2023-05-10T02:05:54;15.9;77.5
78793;SHT31;68134;51.984;5.652;2023-05-10T02:08:25;15.9;77.4
78793;SHT31;68134;51.984;5.652;2023-05-10T02:10:56;15.9;77.6
78793;SHT31;68134;51.984;5.652;2023-05-10T02:13:26;15.9;77.6
78793;SHT31;68134;51.984;5.652;2023-05-10T02:15:57;15.8;77.7
78793;SHT31;68134;51.984;5.652;2023-05-10T02:18:27;15.8;77.8
78793;SHT31;68134;51.984;5.652;2023-05-10T02:20:58;15.8;77.6
78793;SHT31;68134;51.984;5.652;2023-05-10T02:23:30;15.8;77.6
78793;SHT31;68134;51.984;5.652;2023-05-10T02:26:00;15.8;77.6
78793;SHT31;68134;51.984;5.652;2023-05-10T02:28:33;15.8;77.6
78793;SHT31;68134;51.984;5.652;2023-05-10T02:31:05;15.8;77.9
78793;SHT31;68134;51.984;5.652;2023-05-10T02:33:37;15.8;77.6
78793;SHT31;68134;51.984;5.652;2023-05-10T02:36:07;15.8;77.5
78793;SHT31;68134;51.984;5.652;2023-05-10T02:38:37;15.8;77.3
78793;SHT31;68134;51.984;5.652;2023-05-10T02:41:08;15.8;77.3
78793;SHT31;68134;51.984;5.652;2023-05-10T02:43:40;15.8;77.2
78793;SHT31;68134;51.984;5.652;2023-05-10T02:46:09;15.8;77.2
78793;SHT31;68134;51.984;5.652;2023-05-10T02:48:37;15.8;76.9
78793;SHT31;68134;51.984;5.652;2023-05-10T02:51:07;15.8;76.4
78793;SHT31;68134;51.984;5.652;2023-05-10T02:53:40;15.8;76.0
78793;SHT31;68134;51.984;5.652;2023-05-10T02:56:15;15.8;76.2
78793;SHT31;68134;51.984;5.652;2023-05-10T02:58:46;15.8;76.2
78793;SHT31;68134;51.984;5.652;2023-05-10T03:01:14;15.8;76.2
78793;SHT31;68134;51.984;5.652;2023-05-10T03:03:43;15.8;76.1
78793;SHT31;68134;51.984;5.652;2023-05-10T03:06:12;15.7;75.5
78793;SHT31;68134;51.984;5.652;2023-05-10T03:08:40;15.7;75.5
78793;SHT31;68134;51.984;5.652;2023-05-10T03:11:21;15.7;75.7
78793;SHT31;68134;51.984;5.652;2023-05-10T03:14:02;15.7;75.7
78793;SHT31;68134;51.984;5.652;2023-05-10T03:16:45;15.7;75.6
78793;SHT31;68134;51.984;5.652;2023-05-10T03:19:17;15.6;75.3
78793;SHT31;68134;51.984;5.652;2023-05-10T03:21:52;15.6;75.9
78793;SHT31;68134;51.984;5.652;2023-05-10T03:24:23;15.6;75.9
78793;SHT31;68134;51.984;5.652;2023-05-10T03:26:59;15.6;76.2
78793;SHT31;68134;51.984;5.652;2023-05-10T03:29:29;15.6;76.3
78793;SHT31;68134;51.984;5.652;2023-05-10T03:32:00;15.6;76.1
78793;SHT31;68134;51.984;5.652;2023-05-10T03:34:32;15.6;76.5
78793;SHT31;68134;51.984;5.652;2023-05-10T03:37:00;15.6;76.1
78793;SHT31;68134;51.984;5.652;2023-05-10T03:39:29;15.6;76.2
78793;SHT31;68134;51.984;5.652;2023-05-10T03:41:57;15.6;76.2
78793;SHT31;68134;51.984;5.652;2023-05-10T03:44:26;15.6;76.1
78793;SHT31;68134;51.984;5.652;2023-05-10T03:46:54;15.6;76.3
78793;SHT31;68134;51.984;5.652;2023-05-10T03:49:23;15.6;76.2
78793;SHT31;68134;51.984;5.652;2023-05-10T03:51:51;15.6;76.5
78793;SHT31;68134;51.984;5.652;2023-05-10T03:54:20;15.6;76.3
78793;SHT31;68134;51.984;5.652;2023-05-10T03:56:48;15.6;76.1
78793;SHT31;68134;51.984;5.652;2023-05-10T03:59:17;15.5;76.4
78793;SHT31;68134;51.984;5.652;2023-05-10T04:01:45;15.5;76.7
78793;SHT31;68134;51.984;5.652;2023-05-10T04:04:14;15.5;76.7
78793;SHT31;68134;51.984;5.652;2023-05-10T04:06:44;15.5;76.5
78793;SHT31;68134;51.984;5.652;2023-05-10T04:09:13;15.4;76.9
78793;SHT31;68134;51.984;5.652;2023-05-10T04:11:42;15.4;76.5
78793;SHT31;68134;51.984;5.652;2023-05-10T04:14:11;15.4;76.9
78793;SHT31;68134;51.984;5.652;2023-05-10T04:16:39;15.4;77.1
78793;SHT31;68134;51.984;5.652;2023-05-10T04:19:07;15.4;77.1
78793;SHT31;68134;51.984;5.652;2023-05-10T04:21:36;15.4;77.0
78793;SHT31;68134;51.984;5.652;2023-05-10T04:24:05;15.4;77.2
78793;SHT31;68134;51.984;5.652;2023-05-10T04:26:34;15.5;77.1
78793;SHT31;68134;51.984;5.652;2023-05-10T04:29:02;15.5;76.6
78793;SHT31;68134;51.984;5.652;2023-05-10T04:31:30;15.5;76.6
78793;SHT31;68134;51.984;5.652;2023-05-10T04:33:59;15.6;76.8
78793;SHT31;68134;51.984;5.652;2023-05-10T04:36:28;15.6;76.4
78793;SHT31;68134;51.984;5.652;2023-05-10T04:38:56;15.6;76.4
78793;SHT31;68134;51.984;5.652;2023-05-10T04:41:25;15.6;76.0
78793;SHT31;68134;51.984;5.652;2023-05-10T04:43:55;15.7;75.9
78793;SHT31;68134;51.984;5.652;2023-05-10T04:46:23;15.7;75.9
78793;SHT31;68134;51.984;5.652;2023-05-10T04:48:52;15.7;75.7
78793;SHT31;68134;51.984;5.652;2023-05-10T04:51:20;15.7;75.7
78793;SHT31;68134;51.984;5.652;2023-05-10T04:53:49;15.7;75.8
78793;SHT31;68134;51.984;5.652;2023-05-10T04:56:17;15.7;76.0
78793;SHT31;68134;51.984;5.652;2023-05-10T04:58:46;15.7;75.9
78793;SHT31;68134;51.984;5.652;2023-05-10T05:01:15;15.7;75.9
78793;SHT31;68134;51.984;5.652;2023-05-10T05:03:44;15.7;76.2
78793;SHT31;68134;51.984;5.652;2023-05-10T05:06:13;15.7;76.0
78793;SHT31;68134;51.984;5.652;2023-05-10T05:08:41;15.7;76.1
78793;SHT31;68134;51.984;5.652;2023-05-10T05:11:10;15.7;76.1
78793;SHT31;68134;51.984;5.652;2023-05-10T05:13:38;15.7;76.5
78793;SHT31;68134;51.984;5.652;2023-05-10T05:16:07;15.7;76.3
78793;SHT31;68134;51.984;5.652;2023-05-10T05:18:36;15.8;75.9
78793;SHT31;68134;51.984;5.652;2023-05-10T05:21:17;15.8;76.1
78793;SHT31;68134;51.984;5.652;2023-05-10T05:23:46;15.8;76.2
78793;SHT31;68134;51.984;5.652;2023-05-10T05:26:15;15.8;76.2
78793;SHT31;68134;51.984;5.652;2023-05-10T05:28:44;15.8;75.8
78793;SHT31;68134;51.984;5.652;2023-05-10T05:31:16;15.8;76.1
78793;SHT31;68134;51.984;5.652;2023-05-10T05:33:45;15.8;75.7
78793;SHT31;68134;51.984;5.652;2023-05-10T05:36:13;15.8;75.9
78793;SHT31;68134;51.984;5.652;2023-05-10T05:38:42;15.8;75.8
78793;SHT31;68134;51.984;5.652;2023-05-10T05:41:11;15.8;75.7
78793;SHT31;68134;51.984;5.652;2023-05-10T05:43:39;15.8;76.0
78793;SHT31;68134;51.984;5.652;2023-05-10T05:46:08;15.7;76.4
78793;SHT31;68134;51.984;5.652;2023-05-10T05:48:36;15.7;76.5
78793;SHT31;68134;51.984;5.652;2023-05-10T05:51:05;15.7;76.1
78793;SHT31;68134;51.984;5.652;2023-05-10T05:53:34;15.8;76.1
78793;SHT31;68134;51.984;5.652;2023-05-10T05:56:02;15.8;76.1
78793;SHT31;68134;51.984;5.652;2023-05-10T05:58:34;15.8;76.4
78793;SHT31;68134;51.984;5.652;2023-05-10T06:01:02;15.8;76.8
78793;SHT31;68134;51.984;5.652;2023-05-10T06:03:31;15.8;76.6
78793;SHT31;68134;51.984;5.652;2023-05-10T06:05:59;15.8;76.6
78793;SHT31;68134;51.984;5.652;2023-05-10T06:08:27;15.8;76.6
78793;SHT31;68134;51.984;5.652;2023-05-10T06:10:56;15.8;76.7
78793;SHT31;68134;51.984;5.652;2023-05-10T06:13:24;15.8;76.5
78793;SHT31;68134;51.984;5.652;2023-05-10T06:15:55;15.8;76.6
78793;SHT31;68134;51.984;5.652;2023-05-10T06:18:24;15.8;76.2
78793;SHT31;68134;51.984;5.652;2023-05-10T06:20:52;15.8;76.4
78793;SHT31;68134;51.984;5.652;2023-05-10T06:23:21;15.8;76.9
78793;SHT31;68134;51.984;5.652;2023-05-10T06:25:49;15.8;76.6
78793;SHT31;68134;51.984;5.652;2023-05-10T06:28:18;15.8;77.2
78793;SHT31;68134;51.984;5.652;2023-05-10T06:30:46;15.8;76.9
78793;SHT31;68134;51.984;5.652;2023-05-10T06:33:14;15.8;76.9
78793;SHT31;68134;51.984;5.652;2023-05-10T06:35:43;15.8;77.1
78793;SHT31;68134;51.984;5.652;2023-05-10T06:38:12;15.8;76.8
78793;SHT31;68134;51.984;5.652;2023-05-10T06:40:43;15.8;77.0
78793;SHT31;68134;51.984;5.652;2023-05-10T06:43:11;15.8;77.2
78793;SHT31;68134;51.984;5.652;2023-05-10T06:45:40;15.8;77.2
78793;SHT31;68134;51.984;5.652;2023-05-10T06:48:09;15.8;77.4
78793;SHT31;68134;51.984;5.652;2023-05-10T06:50:37;15.8;77.0
78793;SHT31;68134;51.984;5.652;2023-05-10T06:53:06;15.8;77.4
78793;SHT31;68134;51.984;5.652;2023-05-10T06:55:36;15.9;77.3
78793;SHT31;68134;51.984;5.652;2023-05-10T06:58:05;15.9;76.8
78793;SHT31;68134;51.984;5.652;2023-05-10T07:00:33;15.9;76.8
78793;SHT31;68134;51.984;5.652;2023-05-10T07:03:05;15.9;77.0
78793;SHT31;68134;51.984;5.652;2023-05-10T07:05:33;15.9;76.8
78793;SHT31;68134;51.984;5.652;2023-05-10T07:08:02;15.9;77.1
78793;SHT31;68134;51.984;5.652;2023-05-10T07:10:31;16.0;77.3
78793;SHT31;68134;51.984;5.652;2023-05-10T07:13:01;16.0;76.8
78793;SHT31;68134;51.984;5.652;2023-05-10T07:15:30;16.0;76.9
78793;SHT31;68134;51.984;5.652;2023-05-10T07:17:59;16.0;77.0
78793;SHT31;68134;51.984;5.652;2023-05-10T07:20:30;16.0;76.6
78793;SHT31;68134;51.984;5.652;2023-05-10T07:22:58;16.1;76.3
78793;SHT31;68134;51.984;5.652;2023-05-10T07:25:27;16.1;75.6
78793;SHT31;68134;51.984;5.652;2023-05-10T07:27:55;16.1;75.0
78793;SHT31;68134;51.984;5.652;2023-05-10T07:30:24;16.1;75.2
78793;SHT31;68134;51.984;5.652;2023-05-10T07:32:52;16.2;75.7
78793;SHT31;68134;51.984;5.652;2023-05-10T07:35:21;16.2;75.9
78793;SHT31;68134;51.984;5.652;2023-05-10T07:37:49;16.2;75.1
78793;SHT31;68134;51.984;5.652;2023-05-10T07:40:18;16.2;76.4
78793;SHT31;68134;51.984;5.652;2023-05-10T07:42:47;16.3;76.6
78793;SHT31;68134;51.984;5.652;2023-05-10T07:45:15;16.4;77.3
78793;SHT31;68134;51.984;5.652;2023-05-10T07:47:44;16.5;73.9
78793;SHT31;68134;51.984;5.652;2023-05-10T07:50:12;16.6;74.0
78793;SHT31;68134;51.984;5.652;2023-05-10T07:52:41;16.6;73.1
78793;SHT31;68134;51.984;5.652;2023-05-10T07:55:10;16.7;72.5
78793;SHT31;68134;51.984;5.652;2023-05-10T07:57:41;16.7;72.0
78793;SHT31;68134;51.984;5.652;2023-05-10T08:00:12;16.7;71.8
78793;SHT31;68134;51.984;5.652;2023-05-10T08:02:41;16.7;71.0
78793;SHT31;68134;51.984;5.652;2023-05-10T08:05:10;16.7;71.2
78793;SHT31;68134;51.984;5.652;2023-05-10T08:07:38;16.7;71.8
78793;SHT31;68134;51.984;5.652;2023-05-10T08:10:09;16.7;70.4
78793;SHT31;68134;51.984;5.652;2023-05-10T08:12:39;16.7;70.9
78793;SHT31;68134;51.984;5.652;2023-05-10T08:15:08;16.7;70.8
78793;SHT31;68134;51.984;5.652;2023-05-10T08:17:39;16.7;70.2
78793;SHT31;68134;51.984;5.652;2023-05-10T08:20:12;16.7;70.5
78793;SHT31;68134;51.984;5.652;2023-05-10T08:22:43;16.7;71.4
78793;SHT31;68134;51.984;5.652;2023-05-10T08:25:11;16.8;70.3
78793;SHT31;68134;51.984;5.652;2023-05-10T08:27:39;16.8;69.7
78793;SHT31;68134;51.984;5.652;2023-05-10T08:30:09;16.8;68.8
78793;SHT31;68134;51.984;5.652;2023-05-10T08:32:38;16.8;68.3
78793;SHT31;68134;51.984;5.652;2023-05-10T08:35:07;16.9;69.6
78793;SHT31;68134;51.984;5.652;2023-05-10T08:37:35;16.9;69.3
78793;SHT31;68134;51.984;5.652;2023-05-10T08:40:04;16.9;70.6
78793;SHT31;68134;51.984;5.652;2023-05-10T08:42:36;17.0;68.4
78793;SHT31;68134;51.984;5.652;2023-05-10T08:45:07;17.1;69.6
78793;SHT31;68134;51.984;5.652;2023-05-10T08:47:37;17.2;69.0
78793;SHT31;68134;51.984;5.652;2023-05-10T08:50:07;17.3;69.2
78793;SHT31;68134;51.984;5.652;2023-05-10T08:52:38;17.5;69.4
78793;SHT31;68134;51.984;5.652;2023-05-10T08:55:09;17.7;66.3
78793;SHT31;68134;51.984;5.652;2023-05-10T08:57:37;17.9;65.9
78793;SHT31;68134;51.984;5.652;2023-05-10T09:00:10;18.0;64.5
78793;SHT31;68134;51.984;5.652;2023-05-10T09:02:40;18.0;65.0
78793;SHT31;68134;51.984;5.652;2023-05-10T09:05:09;18.1;65.2
78793;SHT31;68134;51.984;5.652;2023-05-10T09:07:38;18.1;64.6
78793;SHT31;68134;51.984;5.652;2023-05-10T09:10:08;18.1;64.9
78793;SHT31;68134;51.984;5.652;2023-05-10T09:12:38;18.2;64.5
78793;SHT31;68134;51.984;5.652;2023-05-10T09:15:09;18.2;63.9
78793;SHT31;68134;51.984;5.652;2023-05-10T09:17:38;18.2;64.0
78793;SHT31;68134;51.984;5.652;2023-05-10T09:20:09;18.2;63.7
78793;SHT31;68134;51.984;5.652;2023-05-10T09:22:37;18.2;64.6
78793;SHT31;68134;51.984;5.652;2023-05-10T09:25:09;18.1;64.1
78793;SHT31;68134;51.984;5.652;2023-05-10T09:27:39;18.1;64.0
78793;SHT31;68134;51.984;5.652;2023-05-10T09:30:09;18.1;64.6
78793;SHT31;68134;51.984;5.652;2023-05-10T09:32:39;18.2;64.9
78793;SHT31;68134;51.984;5.652;2023-05-10T09:35:09;18.2;65.4
78793;SHT31;68134;51.984;5.652;2023-05-10T09:37:39;18.2;64.3
78793;SHT31;68134;51.984;5.652;2023-05-10T09:40:12;18.3;62.8
78793;SHT31;68134;51.984;5.652;2023-05-10T09:42:51;18.3;64.6
78793;SHT31;68134;51.984;5.652;2023-05-10T09:45:16;18.3;62.8
78793;SHT31;68134;51.984;5.652;2023-05-10T09:47:45;18.3;63.2
78793;SHT31;68134;51.984;5.652;2023-05-10T09:50:14;18.3;65.1
78793;SHT31;68134;51.984;5.652;2023-05-10T09:52:52;18.3;64.7
78793;SHT31;68134;51.984;5.652;2023-05-10T09:55:22;18.4;63.0
78793;SHT31;68134;51.984;5.652;2023-05-10T09:58:01;18.4;63.2
78793;SHT31;68134;51.984;5.652;2023-05-10T10:00:35;18.4;63.2
78793;SHT31;68134;51.984;5.652;2023-05-10T10:03:05;18.4;63.7
78793;SHT31;68134;51.984;5.652;2023-05-10T10:05:35;18.5;62.8
78793;SHT31;68134;51.984;5.652;2023-05-10T10:08:05;18.5;63.1
78793;SHT31;68134;51.984;5.652;2023-05-10T10:10:34;18.5;62.9
78793;SHT31;68134;51.984;5.652;2023-05-10T10:13:03;18.5;61.8
78793;SHT31;68134;51.984;5.652;2023-05-10T10:15:32;18.5;61.5
78793;SHT31;68134;51.984;5.652;2023-05-10T10:18:02;18.5;61.8
78793;SHT31;68134;51.984;5.652;2023-05-10T10:20:31;18.5;62.7
78793;SHT31;68134;51.984;5.652;2023-05-10T10:23:00;18.5;62.4
78793;SHT31;68134;51.984;5.652;2023-05-10T10:25:28;18.5;62.4
78793;SHT31;68134;51.984;5.652;2023-05-10T10:28:10;18.6;62.9
78793;SHT31;68134;51.984;5.652;2023-05-10T10:30:43;18.6;62.6
78793;SHT31;68134;51.984;5.652;2023-05-10T10:33:38;18.7;61.1
78793;SHT31;68134;51.984;5.652;2023-05-10T10:36:09;18.7;62.4
78793;SHT31;68134;51.984;5.652;2023-05-10T10:38:57;18.8;63.6
78793;SHT31;68134;51.984;5.652;2023-05-10T10:41:35;18.8;63.0
78793;SHT31;68134;51.984;5.652;2023-05-10T10:44:30;18.9;62.6
78793;SHT31;68134;51.984;5.652;2023-05-10T10:47:02;19.0;62.2
78793;SHT31;68134;51.984;5.652;2023-05-10T10:49:33;19.0;61.7
78793;SHT31;68134;51.984;5.652;2023-05-10T10:52:15;19.1;60.8
78793;SHT31;68134;51.984;5.652;2023-05-10T10:54:49;19.1;60.3
78793;SHT31;68134;51.984;5.652;2023-05-10T10:57:20;19.1;61.6
78793;SHT31;68134;51.984;5.652;2023-05-10T10:59:53;19.1;61.1
78793;SHT31;68134;51.984;5.652;2023-05-10T11:02:34;19.0;60.4
78793;SHT31;68134;51.984;5.652;2023-05-10T11:05:24;19.0;60.9
78793;SHT31;68134;51.984;5.652;2023-05-10T11:07:55;19.0;61.2
78793;SHT31;68134;51.984;5.652;2023-05-10T11:10:26;19.0;61.3
78793;SHT31;68134;51.984;5.652;2023-05-10T11:13:01;19.0;61.7
78793;SHT31;68134;51.984;5.652;2023-05-10T11:15:31;19.0;62.5
78793;SHT31;68134;51.984;5.652;2023-05-10T11:18:19;19.0;61.7
78793;SHT31;68134;51.984;5.652;2023-05-10T11:20:52;19.0;60.5
78793;SHT31;68134;51.984;5.652;2023-05-10T11:23:28;19.0;61.3
78793;SHT31;68134;51.984;5.652;2023-05-10T11:25:59;19.0;61.3
78793;SHT31;68134;51.984;5.652;2023-05-10T11:28:27;19.1;59.8
78793;SHT31;68134;51.984;5.652;2023-05-10T11:30:58;19.1;62.2
78793;SHT31;68134;51.984;5.652;2023-05-10T11:33:27;19.2;60.9
78793;SHT31;68134;51.984;5.652;2023-05-10T11:35:56;19.2;61.8
78793;SHT31;68134;51.984;5.652;2023-05-10T11:38:25;19.2;60.4
78793;SHT31;68134;51.984;5.652;2023-05-10T11:40:53;19.3;60.5
78793;SHT31;68134;51.984;5.652;2023-05-10T11:43:23;19.3;60.0
78793;SHT31;68134;51.984;5.652;2023-05-10T11:45:54;19.4;61.1
78793;SHT31;68134;51.984;5.652;2023-05-10T11:48:23;19.5;59.5
78793;SHT31;68134;51.984;5.652;2023-05-10T11:50:52;19.6;59.3
78793;SHT31;68134;51.984;5.652;2023-05-10T11:53:27;19.6;59.7
78793;SHT31;68134;51.984;5.652;2023-05-10T11:55:55;19.8;59.7
78793;SHT31;68134;51.984;5.652;2023-05-10T11:58:29;19.9;59.2
78793;SHT31;68134;51.984;5.652;2023-05-10T12:00:57;19.9;58.5
78793;SHT31;68134;51.984;5.652;2023-05-10T12:03:26;20.0;59.2
78793;SHT31;68134;51.984;5.652;2023-05-10T12:05:57;20.1;59.5
78793;SHT31;68134;51.984;5.652;2023-05-10T12:08:27;20.1;58.7
78793;SHT31;68134;51.984;5.652;2023-05-10T12:11:06;20.2;58.2
78793;SHT31;68134;51.984;5.652;2023-05-10T12:13:39;20.3;57.9
78793;SHT31;68134;51.984;5.652;2023-05-10T12:16:18;20.4;56.1
78793;SHT31;68134;51.984;5.652;2023-05-10T12:18:50;20.4;58.5
78793;SHT31;68134;51.984;5.652;2023-05-10T12:21:20;20.5;58.5
78793;SHT31;68134;51.984;5.652;2023-05-10T12:23:51;20.6;56.5
78793;SHT31;68134;51.984;5.652;2023-05-10T12:26:21;20.6;56.7
78793;SHT31;68134;51.984;5.652;2023-05-10T12:28:50;20.7;57.0
78793;SHT31;68134;51.984;5.652;2023-05-10T12:31:19;20.7;55.8
78793;SHT31;68134;51.984;5.652;2023-05-10T12:33:48;20.8;56.0
78793;SHT31;68134;51.984;5.652;2023-05-10T12:36:16;20.9;55.9
78793;SHT31;68134;51.984;5.652;2023-05-10T12:38:45;21.0;55.6
78793;SHT31;68134;51.984;5.652;2023-05-10T12:41:17;21.0;54.0
78793;SHT31;68134;51.984;5.652;2023-05-10T12:43:46;21.1;55.2
78793;SHT31;68134;51.984;5.652;2023-05-10T12:46:16;21.1;55.0
78793;SHT31;68134;51.984;5.652;2023-05-10T12:48:45;21.1;55.3
78793;SHT31;68134;51.984;5.652;2023-05-10T12:51:18;21.1;53.9
78793;SHT31;68134;51.984;5.652;2023-05-10T12:53:48;21.1;54.8
78793;SHT31;68134;51.984;5.652;2023-05-10T12:56:17;21.1;54.0
78793;SHT31;68134;51.984;5.652;2023-05-10T12:58:46;21.1;54.9
78793;SHT31;68134;51.984;5.652;2023-05-10T13:01:15;21.1;54.2
78793;SHT31;68134;51.984;5.652;2023-05-10T13:03:43;21.0;55.0
78793;SHT31;68134;51.984;5.652;2023-05-10T13:06:13;20.9;55.4
78793;SHT31;68134;51.984;5.652;2023-05-10T13:08:43;20.7;55.8
78793;SHT31;68134;51.984;5.652;2023-05-10T13:11:12;20.5;56.7
78793;SHT31;68134;51.984;5.652;2023-05-10T13:13:42;20.3;57.2
78793;SHT31;68134;51.984;5.652;2023-05-10T13:16:11;20.1;58.9
78793;SHT31;68134;51.984;5.652;2023-05-10T13:18:39;19.9;60.1
78793;SHT31;68134;51.984;5.652;2023-05-10T13:21:08;19.8;60.7
78793;SHT31;68134;51.984;5.652;2023-05-10T13:23:37;19.7;61.3
78793;SHT31;68134;51.984;5.652;2023-05-10T13:26:06;19.5;61.8
78793;SHT31;68134;51.984;5.652;2023-05-10T13:28:34;19.4;63.6
78793;SHT31;68134;51.984;5.652;2023-05-10T13:31:05;19.2;64.8
78793;SHT31;68134;51.984;5.652;2023-05-10T13:33:33;19.0;65.4
78793;SHT31;68134;51.984;5.652;2023-05-10T13:36:01;18.8;66.8
78793;SHT31;68134;51.984;5.652;2023-05-10T13:38:30;18.5;69.3
78793;SHT31;68134;51.984;5.652;2023-05-10T13:40:58;18.3;70.0
78793;SHT31;68134;51.984;5.652;2023-05-10T13:43:27;18.1;70.7
78793;SHT31;68134;51.984;5.652;2023-05-10T13:45:55;17.9;71.7
78793;SHT31;68134;51.984;5.652;2023-05-10T13:48:24;17.8;72.8
78793;SHT31;68134;51.984;5.652;2023-05-10T13:50:52;17.7;71.5
78793;SHT31;68134;51.984;5.652;2023-05-10T13:53:21;17.7;70.7
78793;SHT31;68134;51.984;5.652;2023-05-10T13:55:49;17.6;71.9
78793;SHT31;68134;51.984;5.652;2023-05-10T13:58:18;17.5;70.0
78793;SHT31;68134;51.984;5.652;2023-05-10T14:00:46;17.5;70.0
78793;SHT31;68134;51.984;5.652;2023-05-10T14:03:15;17.5;69.8
78793;SHT31;68134;51.984;5.652;2023-05-10T14:05:43;17.5;69.7
78793;SHT31;68134;51.984;5.652;2023-05-10T14:08:13;17.4;71.1
78793;SHT31;68134;51.984;5.652;2023-05-10T14:10:42;17.4;70.3
78793;SHT31;68134;51.984;5.652;2023-05-10T14:13:10;17.4;71.8
78793;SHT31;68134;51.984;5.652;2023-05-10T14:15:39;17.4;72.8
78793;SHT31;68134;51.984;5.652;2023-05-10T14:18:07;17.4;71.9
78793;SHT31;68134;51.984;5.652;2023-05-10T14:20:36;17.5;72.0
78793;SHT31;68134;51.984;5.652;2023-05-10T14:23:04;17.5;71.8
78793;SHT31;68134;51.984;5.652;2023-05-10T14:25:33;17.5;71.7
78793;SHT31;68134;51.984;5.652;2023-05-10T14:28:02;17.5;70.7
78793;SHT31;68134;51.984;5.652;2023-05-10T14:30:31;17.6;71.2
78793;SHT31;68134;51.984;5.652;2023-05-10T14:33:01;17.6;71.7
78793;SHT31;68134;51.984;5.652;2023-05-10T14:35:30;17.6;69.7
78793;SHT31;68134;51.984;5.652;2023-05-10T14:37:59;17.7;70.8
78793;SHT31;68134;51.984;5.652;2023-05-10T14:40:29;17.7;70.4
78793;SHT31;68134;51.984;5.652;2023-05-10T14:42:58;17.8;70.5
78793;SHT31;68134;51.984;5.652;2023-05-10T14:45:26;17.8;69.6
78793;SHT31;68134;51.984;5.652;2023-05-10T14:47:55;17.9;70.0
78793;SHT31;68134;51.984;5.652;2023-05-10T14:50:23;18.0;70.4
78793;SHT31;68134;51.984;5.652;2023-05-10T14:52:52;18.0;70.7
78793;SHT31;68134;51.984;5.652;2023-05-10T14:55:21;18.1;69.6
78793;SHT31;68134;51.984;5.652;2023-05-10T14:57:49;18.2;70.2
78793;SHT31;68134;51.984;5.652;2023-05-10T15:00:21;18.3;68.0
78793;SHT31;68134;51.984;5.652;2023-05-10T15:02:49;18.4;68.9
78793;SHT31;68134;51.984;5.652;2023-05-10T15:05:18;18.4;69.1
78793;SHT31;68134;51.984;5.652;2023-05-10T15:07:46;18.5;69.2
78793;SHT31;68134;51.984;5.652;2023-05-10T15:10:15;18.5;69.0
78793;SHT31;68134;51.984;5.652;2023-05-10T15:12:44;18.6;68.6
78793;SHT31;68134;51.984;5.652;2023-05-10T15:15:15;18.6;69.2
78793;SHT31;68134;51.984;5.652;2023-05-10T15:17:43;18.6;69.3
78793;SHT31;68134;51.984;5.652;2023-05-10T15:20:14;18.6;69.4
78793;SHT31;68134;51.984;5.652;2023-05-10T15:22:43;18.7;68.4
78793;SHT31;68134;51.984;5.652;2023-05-10T15:25:13;18.7;68.8
78793;SHT31;68134;51.984;5.652;2023-05-10T15:27:42;18.7;70.3
78793;SHT31;68134;51.984;5.652;2023-05-10T15:30:12;18.8;69.1
78793;SHT31;68134;51.984;5.652;2023-05-10T15:32:40;18.8;69.1
78793;SHT31;68134;51.984;5.652;2023-05-10T15:35:09;18.9;69.3
78793;SHT31;68134;51.984;5.652;2023-05-10T15:37:38;18.9;68.6
78793;SHT31;68134;51.984;5.652;2023-05-10T15:40:07;19.0;67.7
78793;SHT31;68134;51.984;5.652;2023-05-10T15:42:36;19.0;67.4
78793;SHT31;68134;51.984;5.652;2023-05-10T15:45:05;19.0;68.3
78793;SHT31;68134;51.984;5.652;2023-05-10T15:47:36;19.0;67.1
78793;SHT31;68134;51.984;5.652;2023-05-10T15:50:06;19.1;67.2
78793;SHT31;68134;51.984;5.652;2023-05-10T15:52:35;19.0;66.9
78793;SHT31;68134;51.984;5.652;2023-05-10T15:55:04;19.0;66.1
78793;SHT31;68134;51.984;5.652;2023-05-10T15:57:37;19.0;65.8
78793;SHT31;68134;51.984;5.652;2023-05-10T16:00:08;19.0;66.7
78793;SHT31;68134;51.984;5.652;2023-05-10T16:02:37;19.0;66.5
78793;SHT31;68134;51.984;5.652;2023-05-10T16:05:06;19.0;66.2
78793;SHT31;68134;51.984;5.652;2023-05-10T16:07:35;19.0;66.5
78793;SHT31;68134;51.984;5.652;2023-05-10T16:10:05;19.0;65.2
78793;SHT31;68134;51.984;5.652;2023-05-10T16:12:36;19.0;65.7
78793;SHT31;68134;51.984;5.652;2023-05-10T16:15:06;19.0;66.2
78793;SHT31;68134;51.984;5.652;2023-05-10T16:17:34;19.0;67.0
78793;SHT31;68134;51.984;5.652;2023-05-10T16:20:04;19.0;66.7
78793;SHT31;68134;51.984;5.652;2023-05-10T16:22:33;19.0;66.6
78793;SHT31;68134;51.984;5.652;2023-05-10T16:25:05;18.9;65.9
78793;SHT31;68134;51.984;5.652;2023-05-10T16:27:33;18.9;67.3